CYTQ

Tasiujaq Airport

Tasiujaq, Quebec, Canada
METAR CYTQ 201229Z 29002KT 1 1/2SM BCFG OVC002 M12/M14 A2978 RMK SC8 SLP092
Observed Flight Rules
Oct-20 @ 12:29 UTC (22 minutes ago) Instrument Flight Rules
Wind Visibility Clouds Conditions
290° at 2 knots 1 1/2 miles
  • Overcast at 200' AGL
  • Patches of
  • Fog
Temperatures Readings
Current -12°C / 10°F
Dewpoint -14°C / 7°F
Humidity 85%
Altimeter 29.78" Hg
Pressure 1009.2 hPa
Elevation 31
METAR CYTQ 201229Z 29002KT 1 1/2SM BCFG OVC002 M12/M14 A2978 RMK SC8 SLP092
Observed Flight Rules
Oct-20 @ 12:29 UTC
(22 minutes ago)
LIFR
Wind Visibility
290° at 2 knots 1 1/2 miles
Clouds
  • Overcast at 200' AGL
Conditions
  • Patches of
  • Fog
Temperature Dewpoint
-12°C / 10°F -14°C / 7°F
Humidity Altimeter Pressure
85% 29.78" Hg 1009.2 hPa